Time;durP1;ratioP1;P1;durP2;ratioP2;P2;SDS_P1;SDS_P2;PMS_P1;PMS_P2;Temp;Humidity;BMP_temperature;BMP_pressure;BME280_temperature;BME280_humidity;BME280_pressure;Samples;Min_cycle;Max_cycle;Signal;HPM_P1;HPM_P2
2021/11/25 00:02:15;;;;;;;30.27;18.53;;;;;;;2.68;77.37;100029.66;5061153;28;20953;-81
2021/11/25 00:04:40;;;;;;;25.20;17.35;;;;;;;2.69;77.50;100034.84;5054146;28;20748;-81
2021/11/25 00:07:05;;;;;;;26.67;18.60;;;;;;;2.68;77.58;100030.50;5057131;28;20915;-81
2021/11/25 00:09:30;;;;;;;24.43;17.57;;;;;;;2.67;77.70;100030.72;5067268;28;20399;-81
2021/11/25 00:11:56;;;;;;;25.65;16.50;;;;;;;2.63;77.71;100024.13;5037513;28;20488;-82
2021/11/25 00:14:21;;;;;;;24.30;16.87;;;;;;;2.55;77.81;100025.13;5054376;28;20497;-81
2021/11/25 00:16:46;;;;;;;26.87;16.80;;;;;;;2.53;77.75;100011.16;5036242;28;20496;-82
2021/11/25 00:19:12;;;;;;;30.52;17.60;;;;;;;2.59;77.80;100011.16;5062613;28;20409;-81
2021/11/25 00:21:38;;;;;;;29.02;17.90;;;;;;;2.54;77.50;100005.59;5035660;28;20983;-81
2021/11/25 00:24:05;;;;;;;32.22;18.80;;;;;;;2.56;78.00;100006.22;5062354;28;20408;-81
2021/11/25 00:26:30;;;;;;;26.58;17.15;;;;;;;2.59;77.81;100000.47;5059468;28;20877;-81
2021/11/25 00:28:56;;;;;;;25.97;17.50;;;;;;;2.60;77.82;100002.09;5061825;28;20407;-81
2021/11/25 00:31:21;;;;;;;26.13;17.30;;;;;;;2.62;77.60;99999.22;5069699;28;20445;-81
2021/11/25 00:33:46;;;;;;;24.23;17.00;;;;;;;2.62;77.71;100004.56;5051029;28;20437;-82
2021/11/25 00:36:12;;;;;;;27.40;18.00;;;;;;;2.58;77.90;99997.97;5056812;28;20425;-82
2021/11/25 00:38:37;;;;;;;29.13;18.23;;;;;;;2.60;77.98;99995.94;5052114;28;20403;-81
2021/11/25 00:41:02;;;;;;;26.50;17.70;;;;;;;2.61;77.77;99997.56;5060699;28;20748;-81
2021/11/25 00:43:28;;;;;;;29.92;18.65;;;;;;;2.56;77.72;99998.19;5056357;28;20415;-81
2021/11/25 00:45:53;;;;;;;34.60;18.47;;;;;;;2.57;77.93;99990.97;5059358;28;20453;-82
2021/11/25 00:48:18;;;;;;;27.60;17.53;;;;;;;2.62;77.80;99983.16;5056498;28;20401;-81
2021/11/25 00:50:45;;;;;;;28.00;18.10;;;;;;;2.64;77.68;99986.44;5036602;28;20412;-81
2021/11/25 00:53:11;;;;;;;29.77;18.10;;;;;;;2.67;77.46;99988.72;5059738;28;20395;-81
2021/11/25 00:55:38;;;;;;;28.15;18.30;;;;;;;2.68;77.80;99994.91;5051587;28;20439;-81
2021/11/25 00:58:05;;;;;;;30.02;18.95;;;;;;;2.68;77.44;99992.22;5061557;28;20407;-81
2021/11/25 01:00:30;;;;;;;29.00;18.85;;;;;;;2.68;77.91;99994.91;5056658;28;20412;-81
2021/11/25 01:02:56;;;;;;;30.83;18.55;;;;;;;2.70;77.60;99992.84;5054915;28;20413;-81
2021/11/25 01:05:21;;;;;;;26.65;18.17;;;;;;;2.71;77.90;99992.63;5055418;28;20409;-81
2021/11/25 01:07:47;;;;;;;32.10;18.80;;;;;;;2.71;77.67;99994.47;5051956;28;20405;-81
2021/11/25 01:10:15;;;;;;;27.13;16.80;;;;;;;2.73;77.93;99995.94;5059238;28;20494;-81
2021/11/25 01:12:41;;;;;;;29.23;18.73;;;;;;;2.74;77.65;100002.91;5059050;28;20478;-81
2021/11/25 01:15:09;;;;;;;26.88;17.58;;;;;;;2.77;77.42;100010.53;5053876;28;20469;-81
2021/11/25 01:17:36;;;;;;;29.52;18.70;;;;;;;2.76;77.33;100003.56;5057085;28;20421;-81
2021/11/25 01:20:02;;;;;;;28.70;17.95;;;;;;;2.78;77.22;100003.34;5057291;28;20419;-81
2021/11/25 01:22:28;;;;;;;30.52;18.50;;;;;;;2.75;77.65;99995.72;5055993;28;20415;-82
2021/11/25 01:24:53;;;;;;;31.13;18.93;;;;;;;2.76;77.87;99995.53;5058464;28;20411;-81
2021/11/25 01:27:18;;;;;;;28.10;18.50;;;;;;;2.78;77.65;99998.81;5063590;28;20447;-81
2021/11/25 01:29:44;;;;;;;26.67;17.13;;;;;;;2.74;77.32;99994.91;5055812;28;20473;-81
2021/11/25 01:32:09;;;;;;;29.27;18.10;;;;;;;2.70;77.69;99996.31;5063073;28;20443;-81
2021/11/25 01:34:35;;;;;;;29.55;18.15;;;;;;;2.70;77.66;99996.31;5057694;28;20409;-81
2021/11/25 01:37:01;;;;;;;29.30;17.83;;;;;;;2.67;77.79;99998.63;5052763;28;20464;-81
2021/11/25 01:39:26;;;;;;;28.97;18.83;;;;;;;2.65;78.31;100001.47;5036341;28;20412;-81
2021/11/25 01:41:52;;;;;;;28.50;19.33;;;;;;;2.67;78.35;100007.44;5053437;28;20432;-81
2021/11/25 01:44:17;;;;;;;28.90;19.33;;;;;;;2.70;78.32;100004.34;5050438;28;20675;-81
2021/11/25 01:46:43;;;;;;;34.20;20.25;;;;;;;2.70;77.94;100003.56;5052883;28;20424;-81
2021/11/25 01:49:08;;;;;;;30.25;18.58;;;;;;;2.74;77.72;99997.56;5063852;28;20432;-81
2021/11/25 01:51:34;;;;;;;29.10;19.52;;;;;;;2.73;77.98;99997.78;5064906;28;20403;-82
2021/11/25 01:53:59;;;;;;;30.97;19.40;;;;;;;2.72;78.25;99990.78;5057015;28;20412;-81
2021/11/25 01:56:24;;;;;;;32.60;19.53;;;;;;;2.74;77.86;99988.72;5048790;28;20468;-81
2021/11/25 01:58:50;;;;;;;28.90;18.90;;;;;;;2.73;78.31;99974.53;5060311;28;20425;-81
2021/11/25 02:01:19;;;;;;;32.67;19.45;;;;;;;2.76;78.12;99975.97;5054405;28;20816;-81
2021/11/25 02:03:45;;;;;;;30.20;19.25;;;;;;;2.72;78.02;99967.53;5054238;28;20768;-81
2021/11/25 02:06:13;;;;;;;28.48;18.85;;;;;;;2.68;77.99;99960.94;5051448;28;20494;-81
2021/11/25 02:08:39;;;;;;;28.40;18.60;;;;;;;2.70;78.18;99963.44;5033563;28;20514;-81
2021/11/25 02:11:05;;;;;;;32.15;19.85;;;;;;;2.71;78.35;99960.53;5056869;28;20926;-81
2021/11/25 02:13:30;;;;;;;28.02;18.85;;;;;;;2.76;77.96;99958.06;5061598;28;20479;-81
2021/11/25 02:15:57;;;;;;;30.77;19.08;;;;;;;2.79;77.92;99956.81;5057204;28;20480;-81
2021/11/25 02:18:24;;;;;;;26.73;18.53;;;;;;;2.76;78.25;99939.34;5071861;28;20789;-81
2021/11/25 02:20:55;;;;;;;33.72;20.55;;;;;;;2.77;77.98;99938.28;5053110;28;20408;-81
2021/11/25 02:23:22;;;;;;;28.52;17.92;;;;;;;2.73;78.00;99945.09;5055925;28;20461;-81
2021/11/25 02:25:48;;;;;;;30.15;19.17;;;;;;;2.75;78.03;99940.38;5055559;28;20454;-81
2021/11/25 02:28:17;;;;;;;29.97;18.93;;;;;;;2.78;78.17;99941.78;5056064;28;20585;-81
2021/11/25 02:30:43;;;;;;;28.15;18.55;;;;;;;2.78;78.21;99931.09;5058728;28;20443;-81
2021/11/25 02:33:08;;;;;;;29.13;18.90;;;;;;;2.75;78.19;99929.66;5062753;28;20441;-80
2021/11/25 02:35:36;;;;;;;29.83;18.13;;;;;;;2.74;77.73;99927.19;5055336;28;20888;-81
2021/11/25 02:38:02;;;;;;;28.73;18.60;;;;;;;2.75;77.83;99931.50;5055895;28;21033;-81
2021/11/25 02:40:29;;;;;;;29.05;18.67;;;;;;;2.78;77.56;99931.09;5058859;28;20469;-81
2021/11/25 02:43:07;;;;;;;29.92;18.23;;;;;;;2.82;77.49;99933.16;5037304;28;20459;-81
2021/11/25 02:45:45;;;;;;;30.60;19.15;;;;;;;2.83;77.53;99929.44;5035188;28;20413;-81
2021/11/25 02:48:10;;;;;;;30.65;19.63;;;;;;;2.83;77.93;99928.63;5068720;28;20408;-81
2021/11/25 02:50:35;;;;;;;28.25;18.45;;;;;;;2.84;77.61;99930.25;5054811;28;20413;-81
2021/11/25 02:53:00;;;;;;;30.80;18.40;;;;;;;2.82;77.85;99921.63;5056245;28;20893;-81
2021/11/25 02:55:26;;;;;;;31.63;18.10;;;;;;;2.85;77.74;99927.38;5057696;28;20456;-81
2021/11/25 02:57:52;;;;;;;28.10;18.63;;;;;;;2.88;77.27;99920.78;5034178;28;20472;-81
2021/11/25 03:00:21;;;;;;;30.48;18.80;;;;;;;2.89;77.10;99912.56;5059626;28;21013;-81
2021/11/25 03:02:46;;;;;;;27.38;18.15;;;;;;;2.89;76.81;99912.56;5051766;28;20405;-81
2021/11/25 03:05:12;;;;;;;30.02;18.27;;;;;;;2.88;77.06;99912.75;5052568;28;20406;-81
2021/11/25 03:07:38;;;;;;;27.60;17.93;;;;;;;2.87;77.04;99909.25;5054516;28;20435;-81
2021/11/25 03:10:05;;;;;;;26.10;17.77;;;;;;;2.83;77.75;99910.69;5052997;28;20411;-81
2021/11/25 03:12:31;;;;;;;29.80;18.35;;;;;;;2.84;78.15;99911.53;5051184;28;20412;-80
2021/11/25 03:14:56;;;;;;;31.48;19.80;;;;;;;2.84;77.86;99907.00;5053093;28;20765;-80
2021/11/25 03:17:21;;;;;;;30.00;19.47;;;;;;;2.83;77.66;99899.19;5054130;28;20415;-81
2021/11/25 03:19:47;;;;;;;26.77;18.37;;;;;;;2.83;78.00;99894.66;5052624;28;20402;-81
2021/11/25 03:22:12;;;;;;;28.25;18.88;;;;;;;2.86;77.80;99896.94;5068361;28;20444;-81
2021/11/25 03:24:37;;;;;;;29.60;18.60;;;;;;;2.88;77.56;99902.06;5052731;28;20409;-81
2021/11/25 03:27:03;;;;;;;27.77;18.23;;;;;;;2.89;77.87;99903.72;5053687;28;20472;-81
2021/11/25 03:29:28;;;;;;;27.27;18.00;;;;;;;2.90;77.57;99890.09;5051323;28;20423;-81
2021/11/25 03:31:54;;;;;;;27.35;18.15;;;;;;;2.91;77.54;99898.97;5050994;28;20882;-81
2021/11/25 03:34:19;;;;;;;31.30;19.23;;;;;;;2.90;77.53;99900.81;5032343;28;20795;-81
2021/11/25 03:36:44;;;;;;;27.37;18.40;;;;;;;2.91;77.69;99902.47;5056106;28;20894;-81
2021/11/25 03:39:10;;;;;;;28.23;18.13;;;;;;;2.94;77.79;99906.56;5054556;28;21024;-81
2021/11/25 03:41:35;;;;;;;29.15;18.48;;;;;;;2.89;77.67;99901.03;5056735;28;20409;-81
2021/11/25 03:44:01;;;;;;;33.60;19.80;;;;;;;2.92;77.17;99901.44;5040082;28;20503;-81
2021/11/25 03:46:29;;;;;;;30.47;18.40;;;;;;;2.91;77.48;99907.81;5057047;28;20959;-81
2021/11/25 03:48:54;;;;;;;28.35;18.92;;;;;;;2.90;77.48;99902.66;5058611;28;20466;-81
2021/11/25 03:51:20;;;;;;;30.90;19.40;;;;;;;2.93;77.44;99896.91;5053179;28;20405;-81
2021/11/25 03:53:46;;;;;;;29.60;18.92;;;;;;;2.89;77.02;99893.00;5053243;28;20490;-81
2021/11/25 03:56:13;;;;;;;26.55;18.27;;;;;;;2.90;77.41;99899.97;5059366;28;20411;-81
2021/11/25 03:58:38;;;;;;;27.43;17.93;;;;;;;2.91;77.50;99894.44;5039514;28;20498;-81
2021/11/25 04:01:04;;;;;;;28.67;18.77;;;;;;;2.91;77.23;99899.78;5057270;28;20963;-81
2021/11/25 04:03:29;;;;;;;30.73;18.77;;;;;;;2.91;77.38;99893.59;5061738;28;20411;-81
2021/11/25 04:05:55;;;;;;;27.33;18.33;;;;;;;2.90;77.44;99898.13;5059112;28;20420;-81
2021/11/25 04:08:21;;;;;;;32.17;19.00;;;;;;;2.93;77.38;99897.72;5037647;28;20547;-82
2021/11/25 04:10:46;;;;;;;28.37;19.20;;;;;;;2.92;77.24;99903.28;5063952;28;20750;-81
2021/11/25 04:13:12;;;;;;;27.63;19.00;;;;;;;2.90;77.63;99900.81;5039844;28;20424;-81
2021/11/25 04:15:38;;;;;;;33.70;20.70;;;;;;;2.92;77.36;99895.25;5055100;28;20404;-81
2021/11/25 04:18:03;;;;;;;31.33;19.40;;;;;;;2.89;77.08;99885.81;5056198;28;20436;-81
2021/11/25 04:20:29;;;;;;;29.77;19.27;;;;;;;2.91;77.59;99877.56;5058893;28;20408;-81
2021/11/25 04:22:54;;;;;;;35.83;20.63;;;;;;;2.90;77.37;99883.94;5043759;28;20415;-81
2021/11/25 04:25:20;;;;;;;30.57;19.57;;;;;;;2.90;77.37;99879.41;5056115;28;20417;-81
2021/11/25 04:27:46;;;;;;;32.50;20.20;;;;;;;2.89;77.27;99885.81;5052490;28;20413;-81
2021/11/25 04:35:35;;;;;;;30.40;18.70;;;;;;;2.89;77.65;99884.97;5055022;28;20423;-81
2021/11/25 04:38:13;;;;;;;33.03;20.58;;;;;;;2.94;77.47;99879.81;5056341;28;20568;-81
2021/11/25 04:40:45;;;;;;;29.20;19.10;;;;;;;2.97;77.33;99874.03;5053106;28;20397;-81
2021/11/25 04:43:10;;;;;;;31.65;19.58;;;;;;;2.95;77.50;99873.44;5053614;28;20494;-81
2021/11/25 04:45:38;;;;;;;26.17;18.85;;;;;;;2.96;77.25;99877.75;5053472;28;20507;-81
2021/11/25 04:48:04;;;;;;;31.15;19.90;;;;;;;2.98;77.69;99878.38;5054977;28;20448;-81
2021/11/25 04:50:30;;;;;;;32.53;20.02;;;;;;;2.96;77.23;99872.41;5053466;28;20449;-82
2021/11/25 04:52:55;;;;;;;31.48;19.45;;;;;;;2.88;77.26;99876.13;5063548;28;20399;-81
2021/11/25 04:55:20;;;;;;;30.43;19.97;;;;;;;2.87;77.86;99874.47;5053641;28;20485;-81
2021/11/25 04:57:46;;;;;;;32.25;20.63;;;;;;;2.92;77.31;99876.53;5056855;28;20815;-81
2021/11/25 05:00:13;;;;;;;32.07;20.40;;;;;;;2.93;77.55;99886.22;5059110;28;20889;-81
2021/11/25 05:02:39;;;;;;;30.80;19.47;;;;;;;2.96;77.32;99878.59;5052649;28;20480;-81
2021/11/25 05:05:06;;;;;;;30.37;19.73;;;;;;;2.98;77.43;99875.69;5057786;28;20503;-81
2021/11/25 05:07:31;;;;;;;35.20;20.70;;;;;;;3.00;77.41;99877.13;5058191;28;20768;-81
2021/11/25 05:09:57;;;;;;;28.13;19.20;;;;;;;3.00;77.53;99874.44;5056727;28;20496;-81
2021/11/25 05:12:22;;;;;;;29.40;18.57;;;;;;;3.03;77.24;99865.19;5054755;28;20554;-81
2021/11/25 05:14:47;;;;;;;30.00;19.33;;;;;;;3.02;77.31;99871.56;5054884;28;20407;-81
2021/11/25 05:17:13;;;;;;;34.80;20.98;;;;;;;3.01;77.41;99873.41;5058532;28;20478;-81
2021/11/25 05:19:38;;;;;;;29.77;19.47;;;;;;;2.97;77.19;99874.03;5059339;28;20963;-81
2021/11/25 05:22:04;;;;;;;31.10;20.30;;;;;;;2.97;77.14;99868.69;5061493;28;20453;-81
2021/11/25 05:24:29;;;;;;;33.65;21.15;;;;;;;2.98;77.38;99864.97;5036602;28;20422;-81
2021/11/25 05:26:54;;;;;;;29.63;20.47;;;;;;;2.99;77.29;99866.63;5065194;28;20459;-81
2021/11/25 05:29:21;;;;;;;30.67;20.23;;;;;;;3.00;77.37;99860.22;5062257;28;20421;-81
2021/11/25 05:31:48;;;;;;;28.92;19.17;;;;;;;3.03;77.74;99859.84;5058264;28;20935;-81
2021/11/25 05:34:14;;;;;;;33.03;20.38;;;;;;;3.04;77.60;99862.28;5059104;28;20405;-81
2021/11/25 05:36:39;;;;;;;30.77;19.80;;;;;;;3.03;77.62;99863.31;5055374;28;20413;-81
2021/11/25 05:39:04;;;;;;;33.40;20.27;;;;;;;3.03;77.62;99863.31;5057492;28;20605;-81
2021/11/25 05:41:29;;;;;;;32.47;19.97;;;;;;;3.00;77.56;99863.72;5050367;28;20416;-81
2021/11/25 05:43:55;;;;;;;32.07;20.17;;;;;;;3.01;77.76;99857.34;5052328;28;20407;-81
2021/11/25 05:46:20;;;;;;;33.78;21.48;;;;;;;2.98;77.47;99857.78;5053289;28;20404;-80
2021/11/25 05:48:45;;;;;;;31.77;19.93;;;;;;;2.97;77.61;99864.16;5057442;28;20935;-81
2021/11/25 05:51:11;;;;;;;29.07;19.17;;;;;;;2.99;77.54;99866.63;5056898;28;20775;-81
2021/11/25 05:53:36;;;;;;;31.55;19.90;;;;;;;3.02;77.74;99867.03;5053680;28;20423;-81
2021/11/25 05:56:01;;;;;;;30.43;19.20;;;;;;;3.02;77.66;99864.38;5060691;28;20409;-82
2021/11/25 05:58:26;;;;;;;29.90;19.43;;;;;;;3.02;77.54;99874.25;5075481;28;20765;-81
2021/11/25 06:00:52;;;;;;;29.23;19.17;;;;;;;2.97;77.72;99874.84;5064377;28;20403;-82
2021/11/25 06:03:18;;;;;;;28.87;18.30;;;;;;;2.99;77.81;99874.66;5076798;28;20686;-82
2021/11/25 06:05:43;;;;;;;31.88;19.25;;;;;;;3.01;77.73;99880.63;5073763;28;20428;-81
2021/11/25 06:08:09;;;;;;;28.90;19.48;;;;;;;3.01;77.84;99878.78;5060629;28;20425;-82
2021/11/25 06:10:34;;;;;;;33.03;19.70;;;;;;;3.04;77.45;99880.19;5063851;28;20419;-80
2021/11/25 06:13:00;;;;;;;32.27;19.97;;;;;;;3.05;77.29;99880.00;5071407;28;20485;-82
2021/11/25 06:15:25;;;;;;;30.63;20.13;;;;;;;3.06;77.55;99873.59;5058554;28;20478;-83
2021/11/25 06:17:51;;;;;;;32.83;19.88;;;;;;;3.04;77.57;99864.13;5074978;28;20409;-82
2021/11/25 06:20:18;;;;;;;31.60;19.83;;;;;;;3.06;77.74;99862.09;5059441;28;20443;-81
2021/11/25 06:22:47;;;;;;;33.63;20.70;;;;;;;3.03;77.34;99868.66;5074765;28;20394;-82
2021/11/25 06:25:13;;;;;;;30.37;19.40;;;;;;;3.04;77.43;99867.63;5062752;28;20466;-81
2021/11/25 06:27:39;;;;;;;31.80;20.23;;;;;;;3.05;77.27;99871.97;5073702;28;20398;-80
2021/11/25 06:30:06;;;;;;;32.17;20.42;;;;;;;3.04;77.38;99875.66;5063589;28;20454;-80
2021/11/25 06:32:32;;;;;;;35.40;21.13;;;;;;;3.01;77.56;99868.06;5063409;28;20435;-81
2021/11/25 06:34:57;;;;;;;32.40;20.10;;;;;;;3.01;77.58;99867.22;5060499;28;20540;-82
2021/11/25 06:37:22;;;;;;;32.60;20.10;;;;;;;3.02;77.75;99866.22;5044627;28;20513;-81
2021/11/25 06:39:47;;;;;;;35.60;20.97;;;;;;;2.97;77.44;99874.03;5052846;28;20401;-80
2021/11/25 06:42:13;;;;;;;33.07;21.33;;;;;;;3.01;77.51;99873.41;5062969;28;20410;-80
2021/11/25 06:44:38;;;;;;;35.20;20.97;;;;;;;3.01;77.39;99859.22;5069440;28;20493;-81
2021/11/25 06:47:03;;;;;;;35.43;21.47;;;;;;;3.01;77.05;99865.38;5047379;28;20887;-81
2021/11/25 06:49:29;;;;;;;32.33;21.53;;;;;;;3.05;77.34;99868.47;5070381;28;20478;-81
2021/11/25 06:51:54;;;;;;;33.57;21.17;;;;;;;3.07;77.20;99891.31;5058834;28;20397;-80
2021/11/25 06:54:19;;;;;;;34.13;20.98;;;;;;;3.09;77.38;99896.47;5048775;28;20411;-81
2021/11/25 06:56:45;;;;;;;35.17;20.97;;;;;;;3.10;77.12;99898.09;5062737;28;20435;-80
2021/11/25 06:59:10;;;;;;;35.53;21.07;;;;;;;3.08;77.06;99906.34;5054103;28;20453;-80
2021/11/25 07:01:36;;;;;;;31.80;20.57;;;;;;;3.09;77.12;99908.00;5055391;28;20839;-81
2021/11/25 07:04:02;;;;;;;35.50;21.73;;;;;;;3.12;77.31;99899.56;5071107;28;20457;-81
2021/11/25 07:06:27;;;;;;;40.60;23.23;;;;;;;3.12;77.17;99898.72;5065913;28;20494;-81
2021/11/25 07:08:52;;;;;;;42.70;23.90;;;;;;;3.12;77.42;99890.69;5056019;28;20467;-80
2021/11/25 07:11:17;;;;;;;37.70;22.93;;;;;;;3.12;76.99;99883.47;5058651;28;20387;-80
2021/11/25 07:13:43;;;;;;;35.00;21.43;;;;;;;3.13;76.91;99882.44;5066914;28;20891;-81
2021/11/25 07:16:08;;;;;;;35.60;21.90;;;;;;;3.13;76.74;99897.66;5055079;28;20443;-81
2021/11/25 07:18:34;;;;;;;38.65;22.42;;;;;;;3.13;76.86;99901.16;5072166;28;20819;-80
2021/11/25 07:20:59;;;;;;;31.88;20.92;;;;;;;3.13;76.87;99895.81;5056497;28;20389;-81
2021/11/25 07:23:25;;;;;;;36.73;21.00;;;;;;;3.18;76.94;99886.34;5076587;28;20517;-79
2021/11/25 07:25:50;;;;;;;35.55;21.42;;;;;;;3.17;76.74;99890.03;5072229;28;20482;-81
2021/11/25 07:28:16;;;;;;;37.63;22.17;;;;;;;3.19;76.99;99880.78;5068088;28;20813;-80
2021/11/25 07:30:41;;;;;;;35.80;22.57;;;;;;;3.18;77.00;99879.13;5057779;28;20400;-81
2021/11/25 07:33:06;;;;;;;38.58;22.27;;;;;;;3.21;76.77;99881.38;5074567;28;20396;-81
2021/11/25 07:35:32;;;;;;;38.23;22.07;;;;;;;3.21;76.35;99883.25;5073985;28;20416;-81
2021/11/25 07:37:58;;;;;;;35.00;21.90;;;;;;;3.21;76.62;99880.56;5060607;28;20454;-81
2021/11/25 07:40:24;;;;;;;33.80;21.70;;;;;;;3.26;76.50;99878.09;5073584;28;20927;-80
2021/11/25 07:42:52;;;;;;;37.17;22.70;;;;;;;3.26;76.51;99873.53;5053106;28;20420;-81
2021/11/25 07:45:17;;;;;;;34.35;20.90;;;;;;;3.29;76.47;99883.84;5054601;28;20518;-81
2021/11/25 07:47:43;;;;;;;37.05;22.02;;;;;;;3.36;76.49;99892.66;5070491;28;20506;-80
2021/11/25 07:50:12;;;;;;;34.22;21.27;;;;;;;3.39;76.49;99894.09;5071640;28;20799;-80
2021/11/25 07:52:38;;;;;;;33.72;20.63;;;;;;;3.41;76.24;99900.06;5073506;28;20399;-81
2021/11/25 07:55:05;;;;;;;36.17;21.52;;;;;;;3.40;76.06;99890.38;5073821;28;20407;-80
2021/11/25 07:57:31;;;;;;;35.40;21.90;;;;;;;3.37;75.78;99905.00;5060101;28;20417;-80
2021/11/25 07:59:56;;;;;;;34.37;21.27;;;;;;;3.38;76.24;99903.16;5054261;28;20855;-81
2021/11/25 08:02:22;;;;;;;33.40;20.73;;;;;;;3.38;75.81;99906.66;5072888;28;20441;-81
2021/11/25 08:04:48;;;;;;;33.60;21.08;;;;;;;3.43;76.02;99914.06;5064408;28;20393;-81
2021/11/25 08:07:14;;;;;;;35.88;21.23;;;;;;;3.42;76.05;99909.75;5064006;28;20403;-81
2021/11/25 08:09:39;;;;;;;35.57;21.27;;;;;;;3.43;75.77;99908.69;5059775;28;20864;-80
2021/11/25 08:12:06;;;;;;;31.60;20.60;;;;;;;3.47;75.47;99913.44;5071112;28;20898;-81
2021/11/25 08:14:32;;;;;;;37.70;22.95;;;;;;;3.54;75.24;99916.06;5055714;28;20811;-81
2021/11/25 08:17:00;;;;;;;35.00;21.58;;;;;;;3.57;75.31;99905.75;5070475;28;20481;-81
2021/11/25 08:19:28;;;;;;;37.13;22.45;;;;;;;3.59;75.15;99901.00;5068896;28;20502;-81
2021/11/25 08:21:54;;;;;;;38.20;23.38;;;;;;;3.58;75.25;99896.69;5037009;28;20829;-81
2021/11/25 08:24:20;;;;;;;33.65;20.88;;;;;;;3.62;75.26;99886.38;5059402;28;20739;-81
2021/11/25 08:26:45;;;;;;;35.30;22.00;;;;;;;3.63;74.71;99891.50;5067734;28;20413;-81
2021/11/25 08:29:10;;;;;;;34.20;22.15;;;;;;;3.63;74.95;99891.50;5067047;28;20380;-80
2021/11/25 08:31:36;;;;;;;33.83;20.73;;;;;;;3.64;75.04;99893.16;5072538;28;20908;-81
2021/11/25 08:34:02;;;;;;;31.57;19.87;;;;;;;3.58;75.21;99885.97;5067604;28;20397;-81
2021/11/25 08:36:27;;;;;;;30.33;19.53;;;;;;;3.55;75.36;99889.09;5053380;28;20760;-80
2021/11/25 08:38:52;;;;;;;35.33;21.57;;;;;;;3.63;75.02;99888.81;5073735;28;20421;-81
2021/11/25 08:41:18;;;;;;;34.13;21.30;;;;;;;3.52;75.15;99889.50;5055523;28;20720;-81
2021/11/25 08:43:43;;;;;;;32.88;20.70;;;;;;;3.58;74.93;99891.34;5039078;28;20454;-81
2021/11/25 08:46:08;;;;;;;33.17;20.87;;;;;;;3.63;74.77;99890.69;5073335;28;20950;-81
2021/11/25 08:48:34;;;;;;;33.00;20.20;;;;;;;3.62;74.67;99897.09;5079755;28;20490;-80
2021/11/25 08:51:00;;;;;;;34.88;22.08;;;;;;;3.64;74.46;99893.16;5058845;28;20552;-80
2021/11/25 08:53:26;;;;;;;34.47;22.67;;;;;;;3.69;74.64;99897.06;5055431;28;20381;-80
2021/11/25 08:55:52;;;;;;;33.08;21.65;;;;;;;3.69;74.69;99900.53;5067133;28;20388;-81
2021/11/25 08:58:18;;;;;;;32.08;20.83;;;;;;;3.72;74.43;99910.84;5065595;28;20419;-80
2021/11/25 09:00:43;;;;;;;32.00;21.77;;;;;;;3.75;74.23;99904.25;5059247;28;20408;-80
2021/11/25 09:03:08;;;;;;;36.30;22.13;;;;;;;3.74;73.87;99898.06;5068390;28;20400;-81
2021/11/25 09:05:34;;;;;;;40.33;22.40;;;;;;;3.74;73.94;99900.72;5071374;28;20728;-80
2021/11/25 09:08:00;;;;;;;35.63;22.30;;;;;;;3.78;74.04;99895.78;5062713;28;20441;-80
2021/11/25 09:10:25;;;;;;;33.97;22.00;;;;;;;3.83;73.95;99898.63;5052719;28;20452;-80
2021/11/25 09:12:51;;;;;;;40.80;23.87;;;;;;;3.84;74.03;99894.91;5068618;28;20402;-81
2021/11/25 09:15:16;;;;;;;37.83;23.53;;;;;;;3.85;73.94;99893.88;5067724;28;20405;-81
2021/11/25 09:17:42;;;;;;;39.63;22.80;;;;;;;3.87;73.89;99897.97;5060141;28;20464;-81
2021/11/25 09:20:08;;;;;;;42.58;26.15;;;;;;;3.89;74.43;99890.53;5060370;28;20420;-80
2021/11/25 09:22:34;;;;;;;40.90;26.00;;;;;;;3.92;74.17;99889.31;5067989;28;20391;-81
2021/11/25 09:24:59;;;;;;;43.00;26.23;;;;;;;3.94;73.65;99897.94;5070822;28;20398;-81
2021/11/25 09:27:25;;;;;;;42.40;25.63;;;;;;;3.94;73.45;99897.94;5063577;28;20409;-80
2021/11/25 09:29:50;;;;;;;43.80;26.67;;;;;;;3.96;73.37;99894.00;5063065;28;20444;-81
2021/11/25 09:32:15;;;;;;;43.40;27.17;;;;;;;3.95;73.21;99889.66;5061573;28;20510;-80
2021/11/25 09:34:41;;;;;;;38.80;25.77;;;;;;;3.96;72.96;99888.66;5054206;28;20408;-80
2021/11/25 09:37:07;;;;;;;37.77;25.07;;;;;;;4.03;72.61;99886.75;5067100;28;20492;-81
2021/11/25 09:39:32;;;;;;;42.53;26.80;;;;;;;4.03;71.91;99891.28;5044284;28;20399;-80
2021/11/25 09:41:58;;;;;;;39.35;26.00;;;;;;;3.97;71.88;99884.94;5066935;28;20434;-81
2021/11/25 09:44:23;;;;;;;40.90;26.57;;;;;;;4.00;71.75;99887.19;5074237;28;20416;-80
2021/11/25 09:46:55;;;;;;;38.63;23.93;;;;;;;4.04;71.69;99890.25;5055459;28;20396;-80
2021/11/25 09:49:23;;;;;;;39.63;26.80;;;;;;;4.07;71.61;99897.84;5059752;28;20409;-80
2021/11/25 09:51:49;;;;;;;37.25;25.30;;;;;;;4.13;71.68;99894.31;5081173;28;20407;-81
2021/11/25 09:54:15;;;;;;;41.33;25.83;;;;;;;4.16;71.21;99894.69;5056086;28;20403;-80
2021/11/25 09:56:40;;;;;;;38.63;25.80;;;;;;;4.12;71.47;99881.94;5071317;28;20403;-80
2021/11/25 09:59:06;;;;;;;40.17;26.55;;;;;;;4.21;71.38;99879.81;5063822;28;20755;-80
2021/11/25 10:01:33;;;;;;;38.55;25.60;;;;;;;4.25;70.63;99883.72;5053792;28;20425;-81
2021/11/25 10:03:59;;;;;;;37.03;25.13;;;;;;;4.30;70.72;99886.56;5050401;28;20396;-81
2021/11/25 10:06:30;;;;;;;38.13;24.60;;;;;;;4.30;70.85;99883.88;5066196;28;20468;-81
2021/11/25 10:08:56;;;;;;;41.33;26.27;;;;;;;4.29;70.89;99884.91;5040607;28;20407;-81
2021/11/25 10:11:34;;;;;;;39.63;25.92;;;;;;;4.32;70.85;99882.59;5070965;28;21167;-80
2021/11/25 10:14:06;;;;;;;38.65;25.58;;;;;;;4.27;70.57;99885.13;5070129;28;20384;-81
2021/11/25 10:16:37;;;;;;;39.00;25.60;;;;;;;4.30;70.61;99886.56;5057594;28;20501;-81
2021/11/25 10:19:20;;;;;;;34.97;23.65;;;;;;;4.36;69.98;99878.47;5057241;28;20409;-81
2021/11/25 10:21:53;;;;;;;37.03;24.52;;;;;;;4.36;70.47;99888.38;5034916;28;20742;-80
2021/11/25 10:24:34;;;;;;;38.58;25.83;;;;;;;4.42;70.53;99884.81;5048031;28;20476;-80
2021/11/25 10:27:31;;;;;;;36.60;24.92;;;;;;;4.38;69.48;99887.09;5062973;28;20395;-81
2021/11/25 10:30:18;;;;;;;39.90;25.10;;;;;;;4.37;69.91;99871.22;5032583;28;20399;-81
2021/11/25 10:32:56;;;;;;;38.92;25.15;;;;;;;4.40;69.99;99876.16;5043066;28;20401;-81
2021/11/25 10:35:30;;;;;;;41.05;24.92;;;;;;;4.42;70.30;99885.63;5051406;28;20409;-81
2021/11/25 10:38:22;;;;;;;38.30;24.58;;;;;;;4.51;70.34;99883.50;5044708;28;20476;-81
2021/11/25 10:40:45;;;;;;;39.50;24.45;;;;;;;4.53;70.14;99882.25;5062834;28;20398;-80
2021/11/25 10:43:27;;;;;;;38.57;25.03;;;;;;;4.55;69.98;99872.09;5055735;28;20413;-82
2021/11/25 10:45:54;;;;;;;35.03;24.17;;;;;;;4.47;69.82;99875.06;5061194;28;20472;-81
2021/11/25 10:48:33;;;;;;;39.47;24.65;;;;;;;4.33;70.02;99870.03;5065168;28;20413;-81
2021/11/25 10:50:58;;;;;;;35.72;24.77;;;;;;;4.36;70.00;99877.63;5054213;28;20405;-81
2021/11/25 10:53:23;;;;;;;36.40;25.10;;;;;;;4.35;70.19;99874.13;5053260;28;20481;-81
2021/11/25 10:55:49;;;;;;;39.37;25.50;;;;;;;4.38;70.19;99871.00;5068029;28;20395;-81
2021/11/25 10:58:16;;;;;;;37.28;24.90;;;;;;;4.47;69.61;99872.41;5060320;28;20417;-81
2021/11/25 11:00:44;;;;;;;38.85;26.02;;;;;;;4.57;70.25;99874.56;5051044;28;20397;-81
2021/11/25 11:03:13;;;;;;;37.72;25.13;;;;;;;4.59;70.22;99873.31;5066906;28;20390;-80
2021/11/25 11:05:56;;;;;;;37.42;24.00;;;;;;;4.60;69.34;99876.81;5073767;28;20744;-79
2021/11/25 11:08:22;;;;;;;38.85;25.10;;;;;;;4.59;69.50;99880.53;5049669;28;20543;-81
2021/11/25 11:10:58;;;;;;;35.90;24.35;;;;;;;4.49;69.41;99878.34;5050421;28;20409;-80
2021/11/25 11:21:30;;;;;;;36.88;25.10;;;;;;;4.44;69.54;99880.06;5065928;28;20407;-80
2021/11/25 11:23:57;;;;;;;36.95;25.05;;;;;;;4.30;69.38;99873.16;5068705;28;20400;-81
2021/11/25 11:26:22;;;;;;;36.17;24.83;;;;;;;4.24;68.65;99860.63;5069106;28;20392;-81
2021/11/25 11:28:47;;;;;;;45.20;28.67;;;;;;;4.25;68.86;99865.75;5080406;28;20506;-81
2021/11/25 11:31:13;;;;;;;41.03;26.00;;;;;;;4.30;68.61;99873.97;5060445;28;20433;-80
2021/11/25 11:33:39;;;;;;;36.33;24.77;;;;;;;4.27;68.92;99874.41;5060904;28;20765;-81
2021/11/25 11:36:05;;;;;;;38.38;25.60;;;;;;;4.29;68.84;99869.63;5063588;28;20491;-80